Time;durP1;ratioP1;P1;durP2;ratioP2;P2;SDS_P1;SDS_P2;PMS_P1;PMS_P2;Temp;Humidity;BMP_temperature;BMP_pressure;BME280_temperature;BME280_humidity;BME280_pressure;Samples;Min_cycle;Max_cycle;Signal;HPM_P1;HPM_P2
2022/01/29 00:00:21;;;;;;;14.40;9.53;;;12.50;76.80;;;;;;5227955;28;20056;-33
2022/01/29 00:03:13;;;;;;;18.50;15.77;;;12.60;76.80;;;;;;5233027;28;20128;-32
2022/01/29 00:05:44;;;;;;;15.10;11.33;;;12.60;76.90;;;;;;5248165;28;20044;-34
2022/01/29 00:08:16;;;;;;;10.40;6.80;;;12.50;76.90;;;;;;5232531;28;20060;-33
2022/01/29 00:10:53;;;;;;;15.07;10.93;;;12.50;76.80;;;;;;5227558;28;20542;-34
2022/01/29 00:13:24;;;;;;;15.47;11.13;;;12.50;77.10;;;;;;5227292;28;20073;-33
2022/01/29 00:15:55;;;;;;;28.00;19.70;;;12.50;77.10;;;;;;5227303;28;20076;-32
2022/01/29 00:18:26;;;;;;;22.23;15.87;;;12.50;77.10;;;;;;5227325;28;20049;-33
2022/01/29 00:20:57;;;;;;;14.67;9.97;;;12.50;77.20;;;;;;5227523;28;20532;-30
2022/01/29 00:23:28;;;;;;;18.27;13.27;;;12.40;77.10;;;;;;5225980;28;20110;-36
2022/01/29 00:26:00;;;;;;;10.60;8.63;;;12.40;77.30;;;;;;5227275;28;20079;-35
2022/01/29 00:28:33;;;;;;;7.70;5.40;;;12.40;77.30;;;;;;5227086;28;20075;-32
2022/01/29 00:31:05;;;;;;;9.07;5.30;;;12.40;77.40;;;;;;5227301;28;20048;-31
2022/01/29 00:33:38;;;;;;;10.60;5.53;;;12.40;77.50;;;;;;5226951;28;20045;-36
2022/01/29 00:36:08;;;;;;;11.20;6.18;;;12.40;77.40;;;;;;5226942;28;20056;-34
2022/01/29 00:38:40;;;;;;;12.20;7.13;;;12.40;77.70;;;;;;5226908;28;20418;-42
2022/01/29 00:41:10;;;;;;;9.33;6.27;;;12.40;77.60;;;;;;5225562;28;20052;-34
2022/01/29 00:43:42;;;;;;;10.20;6.33;;;12.30;77.70;;;;;;5227000;28;20052;-32
2022/01/29 00:46:12;;;;;;;11.17;6.13;;;12.30;77.70;;;;;;5226787;28;20041;-36
2022/01/29 00:48:44;;;;;;;12.20;5.77;;;12.30;77.70;;;;;;5226468;28;20048;-32
2022/01/29 00:51:15;;;;;;;10.07;5.00;;;12.30;77.70;;;;;;5226223;28;20049;-34
2022/01/29 00:53:46;;;;;;;7.97;4.33;;;12.30;77.80;;;;;;5226521;28;20123;-30
2022/01/29 00:56:17;;;;;;;8.10;5.10;;;12.30;77.80;;;;;;5226615;28;20115;-36
2022/01/29 00:58:48;;;;;;;9.30;5.23;;;12.20;77.90;;;;;;5226658;28;20069;-38
2022/01/29 01:01:18;;;;;;;12.23;6.80;;;12.20;78.30;;;;;;5226321;28;20064;-37
2022/01/29 01:03:50;;;;;;;9.90;5.63;;;12.20;78.90;;;;;;5226331;28;20071;-34
2022/01/29 01:06:20;;;;;;;12.47;7.03;;;12.30;79.20;;;;;;5226465;28;20068;-33
2022/01/29 01:08:51;;;;;;;11.97;6.10;;;12.30;79.00;;;;;;5225224;28;20166;-35
2022/01/29 01:11:22;;;;;;;12.73;6.67;;;12.30;78.90;;;;;;5226440;28;20131;-34
2022/01/29 01:13:53;;;;;;;12.37;5.97;;;12.30;79.10;;;;;;5226126;28;20048;-37
2022/01/29 01:16:24;;;;;;;12.00;5.73;;;12.20;78.90;;;;;;5226129;28;20041;-34
2022/01/29 01:18:55;;;;;;;10.63;5.77;;;12.20;78.90;;;;;;5225173;28;20056;-37
2022/01/29 01:21:26;;;;;;;11.60;6.40;;;12.20;79.00;;;;;;5226293;28;20044;-33
2022/01/29 01:23:57;;;;;;;15.40;7.23;;;12.20;79.00;;;;;;5225978;28;20076;-38
2022/01/29 01:26:28;;;;;;;14.93;7.77;;;12.20;79.00;;;;;;5225902;28;20080;-35
2022/01/29 01:28:59;;;;;;;15.83;8.67;;;12.20;79.20;;;;;;5225711;28;20112;-38
2022/01/29 01:31:30;;;;;;;17.20;7.70;;;12.20;79.20;;;;;;5226136;28;20463;-34
2022/01/29 01:34:03;;;;;;;13.83;7.73;;;12.20;79.20;;;;;;5225869;28;20550;-34
2022/01/29 01:39:29;;;;;;;10.63;6.03;;;12.20;79.40;;;;;;5224596;28;20049;-32
2022/01/29 01:42:03;;;;;;;10.70;6.30;;;12.20;79.50;;;;;;5226089;28;20095;-35
2022/01/29 01:44:43;;;;;;;12.90;6.43;;;12.20;79.50;;;;;;5225707;28;20318;-35
2022/01/29 01:47:15;;;;;;;16.30;8.77;;;12.20;79.50;;;;;;5225704;28;20451;-38
2022/01/29 01:49:46;;;;;;;12.60;7.23;;;12.20;79.40;;;;;;5224198;28;20509;-35
2022/01/29 01:52:24;;;;;;;14.00;6.13;;;12.20;79.40;;;;;;5225664;28;20534;-37
2022/01/29 01:55:03;;;;;;;11.20;5.73;;;12.20;79.50;;;;;;5225887;28;20037;-31
2022/01/29 01:57:34;;;;;;;12.20;7.17;;;12.20;79.50;;;;;;5225557;28;20119;-34
2022/01/29 02:00:06;;;;;;;17.53;9.77;;;12.20;79.50;;;;;;5225518;28;20395;-31
2022/01/29 02:02:37;;;;;;;19.47;10.43;;;12.20;79.60;;;;;;5225639;28;20504;-34
2022/01/29 02:05:08;;;;;;;21.90;12.40;;;12.20;79.60;;;;;;5225700;28;20044;-38
2022/01/29 02:07:39;;;;;;;14.73;7.27;;;12.20;79.60;;;;;;5233621;28;20106;-32
2022/01/29 02:10:12;;;;;;;11.77;7.00;;;12.20;80.10;;;;;;5229041;28;20473;-35
2022/01/29 02:12:46;;;;;;;13.13;7.37;;;12.20;79.50;;;;;;5225330;28;20052;-35
2022/01/29 02:15:20;;;;;;;15.57;8.10;;;12.20;79.60;;;;;;5225519;28;20506;-36
2022/01/29 02:17:51;;;;;;;15.93;8.23;;;12.10;79.40;;;;;;5224159;28;20049;-33
2022/01/29 02:20:28;;;;;;;14.13;5.80;;;12.10;79.30;;;;;;5225286;28;20418;-36
2022/01/29 02:23:00;;;;;;;10.23;6.23;;;12.10;79.40;;;;;;5224013;28;20052;-37
2022/01/29 02:25:36;;;;;;;11.25;6.28;;;12.20;79.40;;;;;;5227166;28;20049;-34
2022/01/29 02:28:21;;;;;;;11.93;6.93;;;12.10;79.40;;;;;;5235493;28;20474;-35
2022/01/29 02:31:00;;;;;;;32.30;25.60;;;12.10;79.20;;;;;;5228482;28;20037;-32
2022/01/29 02:33:32;;;;;;;67.47;36.73;;;12.10;79.30;;;;;;5229232;28;20072;-37
2022/01/29 02:36:03;;;;;;;64.00;27.95;;;12.10;79.40;;;;;;5242046;28;20119;-30
2022/01/29 02:38:35;;;;;;;48.80;19.70;;;12.10;79.40;;;;;;5229413;28;20526;-38
2022/01/29 02:41:06;;;;;;;32.50;16.17;;;12.10;79.60;;;;;;5229060;28;20116;-36
2022/01/29 02:43:49;;;;;;;52.53;21.67;;;12.10;79.60;;;;;;5227990;28;20612;-29
2022/01/29 02:46:29;;;;;;;40.08;17.80;;;12.10;79.50;;;;;;5221840;28;20055;-34
2022/01/29 02:48:59;;;;;;;32.13;14.53;;;12.10;79.70;;;;;;5249866;28;20041;-32
2022/01/29 02:51:31;;;;;;;29.67;13.03;;;12.10;79.60;;;;;;5249813;28;20529;-32
2022/01/29 02:54:01;;;;;;;24.67;12.73;;;12.10;79.70;;;;;;5249728;28;20040;-33
2022/01/29 02:56:32;;;;;;;45.57;17.97;;;12.10;79.80;;;;;;5248352;28;20075;-38
2022/01/29 02:59:04;;;;;;;34.13;14.30;;;12.10;79.90;;;;;;5248621;28;20051;-35
2022/01/29 03:01:35;;;;;;;22.57;11.00;;;12.10;79.90;;;;;;5249398;28;20152;-37
2022/01/29 03:04:06;;;;;;;26.53;12.33;;;12.10;79.90;;;;;;5249689;28;20056;-31
2022/01/29 03:06:37;;;;;;;24.83;11.93;;;12.10;80.00;;;;;;5246288;28;20051;-37
2022/01/29 03:09:08;;;;;;;21.27;10.10;;;12.10;80.10;;;;;;5228968;28;20052;-34
2022/01/29 03:11:39;;;;;;;22.93;11.50;;;12.10;80.10;;;;;;5227129;28;20057;-32
2022/01/29 03:14:10;;;;;;;15.43;7.60;;;12.10;80.10;;;;;;5228689;28;20064;-32
2022/01/29 03:16:41;;;;;;;73.13;34.77;;;12.10;80.20;;;;;;5228430;28;20156;-31
2022/01/29 03:19:12;;;;;;;26.03;14.70;;;12.10;80.20;;;;;;5227300;28;20140;-36
2022/01/29 03:21:43;;;;;;;12.27;7.47;;;12.10;80.10;;;;;;5228459;28;20076;-36
2022/01/29 03:24:14;;;;;;;42.20;18.30;;;12.10;80.20;;;;;;5228324;28;20060;-39
2022/01/29 03:26:45;;;;;;;26.30;12.47;;;12.10;80.10;;;;;;5228526;28;20079;-38
2022/01/29 03:29:16;;;;;;;24.83;11.23;;;12.10;80.10;;;;;;5221924;28;20065;-30
2022/01/29 03:31:47;;;;;;;17.27;8.23;;;12.10;80.30;;;;;;5220370;28;20081;-36
2022/01/29 03:34:18;;;;;;;14.20;7.43;;;12.10;80.00;;;;;;5227976;28;20077;-37
2022/01/29 03:36:49;;;;;;;23.17;11.37;;;12.10;80.00;;;;;;5228364;28;20041;-32
2022/01/29 03:39:20;;;;;;;50.37;23.87;;;12.10;80.00;;;;;;5227962;28;20407;-33
2022/01/29 03:41:52;;;;;;;42.77;18.90;;;12.10;79.90;;;;;;5227856;28;20048;-35
2022/01/29 03:44:23;;;;;;;26.60;12.97;;;12.10;79.90;;;;;;5226305;28;20178;-34
2022/01/29 03:46:54;;;;;;;26.63;15.27;;;12.10;79.90;;;;;;5227953;28;20048;-37
2022/01/29 03:49:25;;;;;;;25.93;14.80;;;12.10;79.80;;;;;;5227831;28;20509;-31
2022/01/29 03:51:56;;;;;;;27.17;16.13;;;12.10;79.80;;;;;;5209391;28;20203;-40
2022/01/29 03:54:27;;;;;;;28.43;17.30;;;12.10;79.80;;;;;;5227696;28;20124;-34
2022/01/29 03:56:58;;;;;;;32.03;21.63;;;12.10;79.90;;;;;;5227746;28;20099;-35
2022/01/29 03:59:29;;;;;;;33.37;21.57;;;12.10;79.80;;;;;;5227819;28;20437;-36
2022/01/29 04:02:00;;;;;;;32.00;25.83;;;12.10;79.80;;;;;;5227669;28;20057;-32
2022/01/29 04:04:31;;;;;;;28.87;24.27;;;12.00;79.80;;;;;;5209819;28;20041;-31
2022/01/29 04:07:09;;;;;;;26.67;21.10;;;12.10;79.90;;;;;;5227457;28;20498;-31
2022/01/29 04:09:47;;;;;;;28.87;18.67;;;12.10;79.90;;;;;;5227612;28;20139;-31
2022/01/29 04:12:18;;;;;;;24.43;14.87;;;12.10;79.90;;;;;;5227252;28;20074;-38
2022/01/29 04:14:50;;;;;;;17.43;9.07;;;12.10;79.90;;;;;;5227547;28;20048;-32
2022/01/29 04:17:21;;;;;;;13.80;7.03;;;12.10;80.10;;;;;;5226184;28;20452;-36
2022/01/29 04:19:51;;;;;;;12.80;7.23;;;12.10;79.90;;;;;;5227326;28;20072;-36
2022/01/29 04:22:23;;;;;;;9.30;5.17;;;12.10;79.90;;;;;;5226157;28;20048;-37
2022/01/29 04:24:53;;;;;;;10.13;5.57;;;12.10;79.90;;;;;;5226271;28;20095;-35
2022/01/29 04:27:34;;;;;;;11.10;5.57;;;12.10;80.10;;;;;;5227101;28;20460;-28
2022/01/29 04:30:13;;;;;;;9.70;4.97;;;12.00;80.30;;;;;;5226963;28;20049;-33
2022/01/29 04:35:18;;;;;;;11.60;5.93;;;12.10;80.60;;;;;;5227250;28;20052;-35
2022/01/29 04:37:50;;;;;;;9.80;4.53;;;12.10;80.50;;;;;;5227017;28;20037;-31
2022/01/29 04:40:21;;;;;;;10.37;5.87;;;12.10;80.20;;;;;;5226767;28;20055;-30
2022/01/29 04:42:52;;;;;;;13.47;6.83;;;12.10;80.10;;;;;;5226654;28;20115;-40
2022/01/29 04:45:23;;;;;;;13.73;7.33;;;12.10;80.20;;;;;;5226745;28;20065;-36
2022/01/29 04:47:54;;;;;;;13.00;7.27;;;12.10;80.40;;;;;;5226651;28;20040;-34
2022/01/29 04:50:25;;;;;;;13.70;8.23;;;12.10;80.40;;;;;;5230366;28;20064;-31
2022/01/29 04:52:56;;;;;;;16.27;7.37;;;12.10;80.40;;;;;;5226432;28;20037;-29
2022/01/29 04:55:27;;;;;;;11.80;6.43;;;12.00;80.30;;;;;;5226728;28;20045;-31
2022/01/29 04:57:58;;;;;;;10.17;6.37;;;12.10;80.30;;;;;;5226653;28;20459;-29
2022/01/29 05:00:29;;;;;;;11.20;7.07;;;12.10;80.40;;;;;;5226733;28;20068;-30
2022/01/29 05:03:10;;;;;;;14.03;7.53;;;12.10;80.30;;;;;;5226384;28;20068;-32
2022/01/29 05:05:42;;;;;;;12.93;6.93;;;12.10;80.50;;;;;;5209029;28;20055;-36
2022/01/29 05:08:13;;;;;;;13.50;7.40;;;12.10;80.50;;;;;;5230223;28;20060;-35
2022/01/29 05:10:44;;;;;;;13.50;6.33;;;12.10;80.60;;;;;;5226416;28;20053;-38
2022/01/29 05:13:20;;;;;;;11.30;6.17;;;12.10;80.50;;;;;;5226167;28;20053;-32
2022/01/29 05:27:09;;;;;;;9.50;4.93;;;12.10;80.40;;;;;;5226127;28;20049;-33
2022/01/29 05:29:40;;;;;;;10.17;6.33;;;12.10;80.30;;;;;;5226042;28;20502;-30
2022/01/29 05:32:15;;;;;;;11.03;6.23;;;12.10;80.30;;;;;;5225726;28;20045;-34
2022/01/29 05:34:46;;;;;;;14.77;6.77;;;12.10;80.20;;;;;;5225846;28;20049;-35
2022/01/29 05:37:17;;;;;;;11.17;5.67;;;12.10;80.80;;;;;;5225973;28;20464;-35
2022/01/29 05:39:48;;;;;;;13.33;6.87;;;12.10;80.80;;;;;;5224360;28;20040;-36
2022/01/29 05:42:18;;;;;;;10.57;6.60;;;12.00;80.80;;;;;;5221136;28;20407;-33
2022/01/29 05:44:50;;;;;;;14.20;7.30;;;12.10;81.00;;;;;;5216957;28;20045;-32
2022/01/29 05:47:21;;;;;;;13.33;7.57;;;12.10;81.10;;;;;;5219236;28;20047;-30
2022/01/29 05:49:52;;;;;;;14.60;6.83;;;12.10;81.10;;;;;;5209868;28;20048;-31
2022/01/29 05:52:23;;;;;;;11.57;6.00;;;12.10;81.00;;;;;;5222716;28;20048;-34
2022/01/29 05:54:54;;;;;;;12.63;6.20;;;12.10;81.30;;;;;;5223314;28;20053;-38
2022/01/29 05:57:25;;;;;;;11.70;5.70;;;12.20;81.50;;;;;;5218068;28;20055;-36
2022/01/29 05:59:56;;;;;;;14.37;6.67;;;12.20;81.50;;;;;;5225304;28;20053;-37
2022/01/29 06:02:27;;;;;;;18.27;7.93;;;12.30;81.70;;;;;;5221072;28;20048;-32
2022/01/29 06:04:58;;;;;;;13.97;6.93;;;12.50;81.70;;;;;;5222391;28;20042;-29
2022/01/29 06:07:29;;;;;;;13.20;6.97;;;12.60;81.40;;;;;;5217409;28;20381;-30
2022/01/29 06:10:01;;;;;;;13.20;5.90;;;12.70;81.30;;;;;;5214857;28;20076;-38
2022/01/29 06:12:31;;;;;;;12.20;6.10;;;12.70;81.10;;;;;;5220083;28;20139;-31
2022/01/29 06:15:03;;;;;;;13.07;6.63;;;12.80;81.10;;;;;;5219882;28;20076;-32
2022/01/29 06:17:34;;;;;;;14.60;6.33;;;12.80;81.00;;;;;;5216559;28;20103;-37
2022/01/29 06:20:06;;;;;;;13.00;6.63;;;12.80;81.00;;;;;;5220590;28;20060;-28
2022/01/29 06:22:36;;;;;;;19.53;12.37;;;12.90;81.00;;;;;;5217760;28;20474;-40
2022/01/29 06:25:08;;;;;;;13.53;6.03;;;12.90;81.10;;;;;;5221446;28;20052;-31
2022/01/29 06:27:40;;;;;;;10.87;5.47;;;12.90;81.20;;;;;;5222319;28;20079;-33
2022/01/29 06:30:12;;;;;;;12.55;5.75;;;12.80;81.20;;;;;;5222209;28;20083;-36
2022/01/29 06:32:43;;;;;;;13.87;6.70;;;12.80;81.30;;;;;;5223647;28;20044;-36
2022/01/29 06:35:14;;;;;;;14.03;5.87;;;12.90;81.60;;;;;;5223469;28;20060;-32
2022/01/29 06:37:45;;;;;;;12.27;5.97;;;12.90;81.50;;;;;;5226843;28;20045;-36
2022/01/29 06:40:16;;;;;;;10.77;5.23;;;13.10;81.10;;;;;;5225796;28;20502;-32
2022/01/29 06:42:47;;;;;;;13.60;6.23;;;13.10;80.90;;;;;;5226942;28;20067;-30
2022/01/29 06:45:18;;;;;;;12.23;6.60;;;13.20;80.70;;;;;;5226750;28;20500;-30
2022/01/29 06:47:49;;;;;;;10.57;5.20;;;13.20;80.80;;;;;;5226203;28;20068;-34
2022/01/29 06:50:21;;;;;;;8.10;5.23;;;11.60;83.40;;;;;;5225541;28;20076;-35
2022/01/29 06:52:51;;;;;;;;;;;10.40;86.50;;;;;;5226012;28;20087;-32
2022/01/29 06:55:23;;;;;;;;;;;9.80;88.40;;;;;;5228296;28;19921;-29
2022/01/29 06:57:53;;;;;;;11.67;6.30;;;9.50;89.90;;;;;;5227392;28;19935;-33
2022/01/29 07:00:25;;;;;;;11.57;7.20;;;9.30;90.10;;;;;;5227507;28;20041;-36
2022/01/29 07:02:55;;;;;;;10.27;7.63;;;9.10;90.40;;;;;;5227563;28;20442;-32
2022/01/29 07:05:26;;;;;;;9.17;6.53;;;9.10;90.70;;;;;;5226154;28;20079;-32
2022/01/29 07:07:57;;;;;;;11.33;8.03;;;9.00;90.70;;;;;;5227182;28;20052;-29
2022/01/29 07:10:29;;;;;;;10.97;7.33;;;9.00;90.80;;;;;;5225905;28;20045;-39
2022/01/29 07:13:00;;;;;;;14.33;7.73;;;9.10;90.80;;;;;;5226545;28;20067;-39
2022/01/29 07:15:31;;;;;;;12.80;7.60;;;9.10;90.70;;;;;;5226616;28;20419;-35
2022/01/29 07:18:02;;;;;;;12.60;7.90;;;9.10;90.80;;;;;;5229263;28;20048;-38
2022/01/29 07:20:33;;;;;;;14.90;10.47;;;9.10;90.80;;;;;;5228748;28;20048;-39
2022/01/29 07:23:06;;;;;;;13.67;8.00;;;9.10;90.90;;;;;;5230053;28;20049;-33
2022/01/29 07:25:37;;;;;;;14.02;9.30;;;9.00;91.00;;;;;;5231014;28;20092;-37
2022/01/29 07:28:08;;;;;;;11.93;7.43;;;9.00;91.10;;;;;;5230489;28;20057;-33
2022/01/29 07:30:39;;;;;;;13.33;8.10;;;8.90;91.10;;;;;;5230537;28;20087;-37
2022/01/29 07:33:10;;;;;;;14.60;9.37;;;8.90;91.20;;;;;;5229283;28;20414;-34
2022/01/29 07:35:41;;;;;;;16.43;10.33;;;8.80;91.20;;;;;;5228853;28;20131;-33
2022/01/29 07:38:13;;;;;;;18.30;10.07;;;8.80;91.40;;;;;;5228295;28;20116;-36
2022/01/29 07:40:44;;;;;;;16.20;8.23;;;8.70;91.60;;;;;;5229324;28;20063;-32
2022/01/29 07:43:14;;;;;;;19.00;10.40;;;8.70;91.70;;;;;;5229658;28;20071;-32
2022/01/29 07:45:46;;;;;;;18.47;10.87;;;8.60;91.90;;;;;;5228959;28;20083;-39
2022/01/29 07:48:16;;;;;;;13.77;9.00;;;8.60;91.90;;;;;;5229519;28;20470;-37
2022/01/29 07:50:48;;;;;;;20.60;11.13;;;8.60;91.90;;;;;;5230290;28;20139;-30
2022/01/29 07:53:19;;;;;;;16.77;8.57;;;8.50;92.00;;;;;;5229876;28;20479;-34
2022/01/29 07:55:50;;;;;;;23.70;12.13;;;8.50;92.10;;;;;;5228766;28;20045;-38
2022/01/29 07:58:21;;;;;;;16.60;8.57;;;8.50;92.20;;;;;;5229949;28;20064;-28
2022/01/29 08:00:53;;;;;;;15.40;8.07;;;8.50;92.20;;;;;;5229987;28;20049;-38
2022/01/29 08:03:24;;;;;;;15.73;7.70;;;8.50;92.30;;;;;;5229896;28;20037;-29
2022/01/29 08:05:55;;;;;;;11.93;7.80;;;8.50;92.50;;;;;;5230476;28;20075;-36
2022/01/29 08:08:26;;;;;;;15.83;8.60;;;8.50;92.40;;;;;;5229885;28;20053;-33
2022/01/29 08:10:57;;;;;;;14.30;7.50;;;8.50;92.40;;;;;;5229623;28;20391;-33
2022/01/29 08:13:28;;;;;;;32.10;16.07;;;8.50;92.50;;;;;;5229069;28;20041;-30
2022/01/29 08:15:59;;;;;;;22.10;12.13;;;8.60;92.50;;;;;;5229834;28;20064;-34
2022/01/29 08:18:30;;;;;;;20.87;9.90;;;8.60;92.60;;;;;;5229706;28;20041;-32
2022/01/29 08:21:01;;;;;;;29.33;14.33;;;8.60;92.60;;;;;;5211915;28;20494;-39
2022/01/29 08:23:33;;;;;;;23.00;12.03;;;8.50;92.70;;;;;;5228938;28;20044;-32
2022/01/29 08:26:04;;;;;;;18.17;9.10;;;8.60;92.80;;;;;;5223378;28;20460;-34
2022/01/29 08:28:35;;;;;;;15.87;9.60;;;8.50;93.00;;;;;;5225750;28;20080;-36
2022/01/29 08:31:07;;;;;;;18.00;9.33;;;8.50;93.10;;;;;;5228432;28;20044;-31
2022/01/29 08:33:38;;;;;;;19.53;10.53;;;8.50;93.20;;;;;;5227579;28;20388;-36
2022/01/29 08:36:09;;;;;;;24.47;10.90;;;8.50;93.40;;;;;;5223479;28;20048;-37
2022/01/29 08:38:40;;;;;;;28.33;13.60;;;8.70;93.40;;;;;;5208626;28;20407;-40
2022/01/29 08:41:11;;;;;;;17.27;9.30;;;9.20;92.90;;;;;;5208961;28;20045;-32
2022/01/29 08:43:42;;;;;;;20.73;9.13;;;9.70;92.30;;;;;;5223338;28;20407;-38
2022/01/29 08:46:13;;;;;;;17.23;7.13;;;10.10;91.80;;;;;;5208509;28;20049;-37
2022/01/29 08:48:44;;;;;;;17.03;9.13;;;10.50;91.50;;;;;;5216039;28;20054;-38
2022/01/29 08:51:15;;;;;;;21.53;8.63;;;10.80;91.00;;;;;;5228850;28;20091;-32
2022/01/29 08:53:46;;;;;;;16.27;7.00;;;11.10;90.90;;;;;;5228888;28;20486;-31
2022/01/29 08:56:18;;;;;;;23.23;11.40;;;11.30;90.60;;;;;;5228951;28;20067;-31
2022/01/29 08:58:48;;;;;;;22.00;9.37;;;11.50;90.40;;;;;;5228152;28;20057;-37
2022/01/29 09:01:20;;;;;;;14.57;7.83;;;11.60;90.30;;;;;;5228479;28;20044;-35
2022/01/29 09:03:51;;;;;;;18.50;9.27;;;11.70;90.20;;;;;;5228560;28;20048;-37
2022/01/29 09:06:22;;;;;;;14.60;8.20;;;11.80;90.20;;;;;;5228817;28;20045;-34
2022/01/29 09:08:53;;;;;;;16.93;8.23;;;11.90;90.00;;;;;;5228718;28;20520;-37
2022/01/29 09:11:24;;;;;;;17.67;9.10;;;12.00;90.00;;;;;;5228555;28;20448;-40
2022/01/29 09:13:55;;;;;;;17.73;9.43;;;12.00;90.00;;;;;;5228600;28;20083;-31
2022/01/29 09:16:26;;;;;;;17.00;8.23;;;12.00;90.00;;;;;;5228537;28;20052;-35
2022/01/29 09:18:57;;;;;;;19.40;8.70;;;12.10;89.90;;;;;;5228274;28;20367;-33
2022/01/29 09:21:28;;;;;;;17.80;8.13;;;12.10;89.80;;;;;;5228580;28;20037;-42
2022/01/29 09:23:59;;;;;;;15.30;9.13;;;12.30;89.80;;;;;;5228086;28;20406;-31
2022/01/29 09:26:30;;;;;;;20.30;8.70;;;12.30;89.80;;;;;;5228133;28;20057;-33
2022/01/29 09:29:02;;;;;;;16.00;8.73;;;12.30;89.60;;;;;;5227189;28;20383;-30
2022/01/29 09:31:33;;;;;;;21.90;11.87;;;12.30;89.50;;;;;;5228166;28;20041;-30
2022/01/29 09:34:04;;;;;;;20.33;11.17;;;12.30;89.30;;;;;;5228061;28;20041;-28
2022/01/29 09:36:35;;;;;;;22.53;11.00;;;12.30;89.40;;;;;;5228489;28;20069;-31
2022/01/29 09:39:06;;;;;;;20.53;11.03;;;12.30;89.50;;;;;;5227291;28;20111;-34
2022/01/29 09:41:38;;;;;;;20.13;9.60;;;12.20;89.30;;;;;;5228364;28;20381;-36
2022/01/29 09:44:08;;;;;;;22.47;10.07;;;12.20;89.20;;;;;;5227011;28;20548;-36
2022/01/29 09:46:40;;;;;;;22.37;11.63;;;12.20;89.30;;;;;;5227856;28;20136;-33
2022/01/29 09:49:11;;;;;;;22.47;11.70;;;12.20;89.60;;;;;;5228222;28;20453;-30
2022/01/29 09:51:42;;;;;;;26.10;14.23;;;12.30;89.60;;;;;;5210784;28;20403;-28
2022/01/29 09:54:13;;;;;;;20.73;11.27;;;12.20;89.70;;;;;;5210563;28;20041;-39
2022/01/29 09:56:44;;;;;;;23.00;12.90;;;12.20;89.60;;;;;;5227986;28;20124;-34
2022/01/29 09:59:15;;;;;;;25.80;13.40;;;12.20;89.70;;;;;;5226726;28;20128;-33
2022/01/29 10:01:46;;;;;;;29.97;14.97;;;12.30;89.70;;;;;;5228003;28;20475;-33
2022/01/29 10:04:17;;;;;;;27.53;15.90;;;12.30;89.70;;;;;;5227899;28;20045;-29
2022/01/29 10:07:11;;;;;;;19.33;11.33;;;12.30;89.90;;;;;;5227842;28;20044;-31
2022/01/29 10:09:42;;;;;;;16.15;10.02;;;12.30;90.00;;;;;;5228155;28;20067;-34
2022/01/29 10:12:28;;;;;;;17.77;10.17;;;12.20;90.00;;;;;;5227868;28;20073;-36
2022/01/29 10:15:04;;;;;;;19.67;10.17;;;12.20;90.00;;;;;;5228145;28;20163;-30
2022/01/29 10:17:44;;;;;;;16.23;9.07;;;12.20;90.00;;;;;;5227749;28;20056;-31
2022/01/29 10:20:33;;;;;;;14.37;9.87;;;12.20;90.30;;;;;;5227662;28;20045;-31
2022/01/29 10:23:04;;;;;;;15.03;9.87;;;12.20;90.10;;;;;;5227547;28;20102;-32
2022/01/29 10:25:41;;;;;;;23.53;10.50;;;12.20;90.10;;;;;;5227676;28;20046;-36
2022/01/29 10:28:20;;;;;;;15.90;9.63;;;12.20;90.20;;;;;;5227999;28;20056;-35
2022/01/29 10:30:51;;;;;;;16.27;10.00;;;12.20;90.20;;;;;;5227817;28;20049;-31
2022/01/29 10:33:24;;;;;;;13.83;9.33;;;12.20;90.30;;;;;;5227352;28;20045;-31
2022/01/29 10:36:16;;;;;;;16.98;11.43;;;12.10;90.20;;;;;;5227384;28;20053;-38
2022/01/29 10:38:48;;;;;;;16.27;10.73;;;12.20;90.30;;;;;;5227522;28;20394;-32
2022/01/29 10:41:27;;;;;;;13.43;9.50;;;12.20;90.30;;;;;;5227131;28;20052;-27
2022/01/29 10:44:19;;;;;;;15.87;9.90;;;12.30;90.40;;;;;;5227111;28;20124;-38
2022/01/29 10:46:51;;;;;;;14.30;9.87;;;12.30;90.50;;;;;;5227175;28;20056;-33
2022/01/29 10:49:23;;;;;;;13.93;10.37;;;12.30;90.40;;;;;;5227194;28;20411;-32
2022/01/29 10:51:59;;;;;;;16.00;11.20;;;12.30;90.40;;;;;;5230536;28;20490;-28
2022/01/29 10:54:37;;;;;;;14.50;10.80;;;12.30;90.50;;;;;;5246716;28;20052;-37
2022/01/29 10:57:13;;;;;;;15.00;10.80;;;12.40;90.50;;;;;;5231194;28;20048;-32
2022/01/29 10:59:52;;;;;;;14.87;9.63;;;12.30;90.60;;;;;;5231203;28;20645;-31
2022/01/29 11:02:26;;;;;;;15.10;9.83;;;12.30;90.50;;;;;;5231661;28;20550;-36
2022/01/29 11:05:01;;;;;;;14.17;9.20;;;12.30;90.50;;;;;;5231529;28;20056;-35
2022/01/29 11:07:31;;;;;;;19.03;13.50;;;12.30;90.40;;;;;;5231323;28;20048;-31
2022/01/29 11:10:05;;;;;;;15.90;10.87;;;12.30;90.70;;;;;;5229755;28;20041;-33
2022/01/29 11:12:36;;;;;;;15.43;9.52;;;12.30;90.40;;;;;;5230901;28;20060;-33
2022/01/29 11:15:07;;;;;;;12.27;8.80;;;12.30;90.40;;;;;;5229737;28;20068;-34
2022/01/29 11:17:38;;;;;;;12.57;9.07;;;12.30;90.30;;;;;;5228088;28;20090;-34
2022/01/29 11:20:19;;;;;;;12.57;8.60;;;12.40;90.40;;;;;;5229823;28;20489;-37
2022/01/29 11:23:16;;;;;;;15.27;9.77;;;12.40;90.30;;;;;;5212292;28;20387;-34
2022/01/29 11:26:00;;;;;;;14.77;10.37;;;12.40;90.40;;;;;;5200381;28;20246;-35
2022/01/29 11:28:34;;;;;;;15.57;12.50;;;12.40;90.30;;;;;;5178472;28;20062;-34
2022/01/29 11:31:13;;;;;;;14.27;10.27;;;12.40;90.30;;;;;;5164289;28;20073;-30
2022/01/29 11:34:04;;;;;;;12.73;9.40;;;12.40;90.20;;;;;;5164422;28;20058;-31
2022/01/29 11:36:47;;;;;;;10.10;8.30;;;12.40;90.20;;;;;;5164329;28;20050;-32
2022/01/29 11:39:25;;;;;;;16.67;11.80;;;12.40;90.10;;;;;;5163962;28;20257;-31
2022/01/29 11:42:35;;;;;;;10.80;8.88;;;12.40;90.10;;;;;;5148994;28;20088;-32
2022/01/29 11:45:44;;;;;;;15.83;10.40;;;12.30;89.90;;;;;;5132909;28;20501;-31
2022/01/29 11:48:29;;;;;;;15.93;10.07;;;12.40;89.80;;;;;;5068141;29;20135;-31
2022/01/29 11:51:05;;;;;;;13.63;9.00;;;12.30;89.60;;;;;;5083030;29;20195;-36
2022/01/29 11:53:54;;;;;;;13.13;8.53;;;12.30;89.50;;;;;;5084487;29;20565;-31
2022/01/29 11:57:06;;;;;;;13.30;9.40;;;12.30;89.60;;;;;;5076296;29;20077;-34
2022/01/29 12:00:35;;;;;;;17.77;13.33;;;12.30;89.40;;;;;;5116660;29;20414;-34
2022/01/29 12:03:28;;;;;;;10.33;8.17;;;12.30;89.30;;;;;;5123088;28;20426;-40
2022/01/29 12:06:11;;;;;;;14.17;9.83;;;12.30;89.40;;;;;;5123606;28;20138;-32
2022/01/29 12:09:25;;;;;;;16.17;11.00;;;12.30;89.40;;;;;;5122974;28;20054;-33
2022/01/29 12:12:47;;;;;;;26.67;17.03;;;12.30;89.20;;;;;;5123025;29;20138;-36
2022/01/29 12:15:21;;;;;;;52.73;29.13;;;12.30;89.30;;;;;;5123206;28;20039;-36
2022/01/29 12:18:00;;;;;;;33.50;21.37;;;12.30;89.20;;;;;;5122844;28;20053;-35
2022/01/29 12:20:31;;;;;;;14.23;11.10;;;12.30;89.30;;;;;;5120678;28;20494;-35
2022/01/29 12:23:05;;;;;;;17.13;11.30;;;12.30;89.30;;;;;;5136495;28;20081;-32
2022/01/29 12:25:36;;;;;;;17.50;11.47;;;12.30;89.30;;;;;;5183454;28;20542;-35
2022/01/29 12:28:08;;;;;;;14.20;10.73;;;12.20;89.30;;;;;;5183102;28;20053;-31
2022/01/29 12:30:40;;;;;;;14.47;9.90;;;12.20;89.50;;;;;;5122981;28;20074;-35
2022/01/29 12:33:13;;;;;;;13.00;10.05;;;12.20;89.40;;;;;;5122571;28;20164;-39
2022/01/29 12:35:48;;;;;;;8.82;6.68;;;12.20;89.40;;;;;;5132501;28;20767;-32
2022/01/29 12:38:29;;;;;;;9.67;6.97;;;12.20;89.30;;;;;;5152298;28;20132;-34
2022/01/29 12:41:03;;;;;;;9.60;6.10;;;12.20;89.50;;;;;;5152031;28;20504;-32
2022/01/29 12:43:39;;;;;;;9.83;7.17;;;12.20;89.40;;;;;;5183260;28;20081;-31
2022/01/29 12:46:17;;;;;;;8.93;7.40;;;12.20;89.40;;;;;;5183143;28;20061;-39
2022/01/29 12:49:06;;;;;;;12.80;9.27;;;12.20;89.80;;;;;;5183039;28;20053;-32
2022/01/29 12:51:58;;;;;;;8.93;6.20;;;12.20;89.60;;;;;;5159320;28;20057;-43
2022/01/29 12:54:30;;;;;;;8.37;7.10;;;12.20;89.50;;;;;;5182607;28;20608;-35
2022/01/29 12:57:01;;;;;;;7.77;6.93;;;12.20;89.50;;;;;;5182892;28;20080;-33
2022/01/29 12:59:35;;;;;;;8.23;6.50;;;12.20;89.70;;;;;;5182655;28;20407;-33
2022/01/29 13:02:06;;;;;;;9.20;6.80;;;12.20;89.80;;;;;;5213393;28;20045;-35
2022/01/29 13:04:38;;;;;;;8.03;5.90;;;12.20;89.80;;;;;;5225971;28;20049;-34
2022/01/29 13:07:17;;;;;;;8.57;6.87;;;12.20;89.90;;;;;;5225335;28;20072;-34
2022/01/29 13:09:55;;;;;;;9.00;6.13;;;12.20;89.90;;;;;;5225095;28;20056;-32
2022/01/29 13:12:26;;;;;;;8.13;6.03;;;12.20;90.00;;;;;;5225890;28;20053;-37
2022/01/29 13:14:59;;;;;;;7.40;6.70;;;12.20;90.00;;;;;;5224696;28;20123;-40
2022/01/29 13:17:30;;;;;;;9.30;6.47;;;12.20;90.10;;;;;;5225413;28;20045;-36
2022/01/29 13:20:08;;;;;;;7.40;6.30;;;12.20;90.00;;;;;;5225419;28;20044;-39
2022/01/29 13:22:42;;;;;;;8.40;6.77;;;12.20;90.10;;;;;;5225095;28;20037;-33
2022/01/29 13:25:14;;;;;;;8.18;6.40;;;12.20;90.00;;;;;;5225980;28;20044;-35